Latest Weather Observations for Holmes Reef

IDQ60801

Issued at 3:35 am EST Tuesday 21 October 2014 (issued every 30 minutes, with the page automatically refreshed every 10 minutes)

About weather observations | Map of weather stations | Latest weather observations for QLD | Other Formats
Station Details ID: 200732 Name: HOLMES REEF Lat: -16.47 Lon: 147.87 Height: 1.9 m
Data from the previous 72 hours. | See also: Recent months at Holmes Reef
Date/Time
EST
Temp
°C
App
Temp
°C
Dew
Point
Rel
Hum
%
Delta-T
°C
Wind Press
QNH
hPa
Press
MSL
hPa
Rain
since 9 am
mm
Dir
 
Spd
km/h
Gust
km/h
Spd
kts
Gust
kts
21/03:30am 24.1 - - - - SE 39 44 21 24 1015.9 - -
21/03:15am 24.5 - - - - SE 39 39 21 21 1015.9 1015.6 -
21/03:00am 24.2 - - - - SE 37 43 20 23 1015.9 - -
21/02:30am 24.3 - - - - SE 39 44 21 24 1016.0 - -
21/02:15am 24.2 - - - - SE 37 - 20 - - 1016.0 -
21/02:00am 24.3 - - - - SE 37 43 20 23 1016.5 - -
21/01:30am 24.2 - - - - SE 37 43 20 23 1016.5 - -
21/01:15am 24.3 - - - - SE 39 - 21 - - 1016.4 -
21/01:00am 24.3 - - - - SE 37 44 20 24 1016.9 - -
21/12:30am 24.4 - - - - SE 39 44 21 24 1017.3 - -
21/12:15am 24.3 - - - - SE 37 - 20 - - 1017.3 -
21/12:00am 24.4 - - - - SE 39 43 21 23 1017.7 - -
 
Date/Time
EST
Temp
°C
App
Temp
°C
Dew
Point
Rel
Hum
%
Delta-T
°C
Wind Press
QNH
hPa
Press
MSL
hPa
Rain
since 9 am
mm
Dir
 
Spd
km/h
Gust
km/h
Spd
kts
Gust
kts
20/11:30pm 24.5 - - - - SE 39 44 21 24 1018.0 - -
20/11:15pm 24.6 - - - - SE 37 - 20 - - 1017.8 -
20/11:00pm 24.5 - - - - ESE 41 44 22 24 1018.2 - -
20/10:30pm 24.9 - - - - ESE 39 44 21 24 1018.4 - -
20/10:15pm 24.7 - - - - SE 39 - 21 - - 1018.1 -
20/10:00pm 24.5 - - - - ESE 41 46 22 25 1018.4 - -
20/09:30pm 24.8 - - - - ESE 39 46 21 25 1018.2 - -
20/09:15pm 25.0 - - - - ESE 39 - 21 - - 1017.9 -
20/09:00pm 24.8 - - - - ESE 39 44 21 24 1018.1 - -
20/08:30pm 24.8 - - - - SE 39 44 21 24 1017.8 - -
20/08:15pm 24.9 - - - - ESE 39 - 21 - - 1017.3 -
20/08:00pm 24.7 - - - - ESE 41 46 22 25 1017.5 - -
20/07:30pm 24.6 - - - - ESE 41 46 22 25 1017.3 - -
20/07:15pm 24.7 - - - - ESE 39 - 21 - - 1016.8 -
20/07:00pm 24.8 - - - - ESE 39 46 21 25 1017.0 - -
20/06:30pm 24.9 - - - - ESE 43 48 23 26 1016.6 - -
20/06:15pm 24.8 - - - - ESE 43 - 23 - - 1016.2 -
20/06:00pm 24.8 - - - - ESE 39 46 21 25 1016.4 - -
20/05:30pm 24.9 - - - - SE 43 50 23 27 1016.1 - -
20/05:15pm 24.9 - - - - ESE 41 - 22 - - 1015.7 -
20/05:00pm 25.0 - - - - ESE 41 46 22 25 1015.8 - -
20/04:30pm 24.9 - - - - ESE 41 48 22 26 1015.6 - -
20/04:15pm 24.9 - - - - SE 41 - 22 - - 1015.2 -
20/04:00pm 24.8 - - - - ESE 43 48 23 26 1015.4 - -
20/03:30pm 24.9 - - - - SE 43 50 23 27 1015.5 - -
20/03:15pm 24.8 - - - - ESE 43 - 23 - - 1015.3 -
20/03:00pm 24.9 - - - - ESE 43 52 23 28 1015.6 - -
20/02:30pm 24.9 - - - - ESE 44 50 24 27 1015.8 - -
20/02:15pm 24.9 - - - - SE 44 - 24 - - 1015.7 -
20/02:00pm 24.9 - - - - ESE 44 50 24 27 1016.1 - -
20/01:30pm 24.9 - - - - ESE 46 52 25 28 1016.3 - -
20/01:15pm 25.1 - - - - SE 43 - 23 - - 1016.2 -
20/01:00pm 24.9 - - - - SE 46 54 25 29 1016.6 - -
20/12:30pm 24.7 - - - - SE 44 54 24 29 1017.0 - -
20/12:15pm 24.8 - - - - SE 44 - 24 - - 1017.1 -
20/12:00pm 24.7 - - - - SE 44 52 24 28 1017.5 - -
20/11:30am 25.0 - - - - ESE 46 56 25 30 1018.0 - -
20/11:15am 25.0 - - - - SE 46 - 25 - - 1017.8 -
20/11:00am 24.9 - - - - ESE 44 56 24 30 1018.2 - -
20/10:30am 24.8 - - - - ESE 48 56 26 30 1018.4 - -
20/10:15am 24.9 - - - - ESE 46 - 25 - - 1018.2 -
20/10:00am 24.9 - - - - ESE 46 52 25 28 1018.5 - -
20/09:30am 24.8 - - - - SE 48 56 26 30 1018.6 - -
20/09:15am 24.9 - - - - ESE 44 - 24 - - 1018.5 -
20/09:00am 24.8 - - - - ESE 48 56 26 30 1018.8 - -
20/08:30am 24.9 - - - - ESE 46 56 25 30 1018.5 - -
20/08:15am 24.9 - - - - ESE 48 - 26 - - 1018.2 -
20/08:00am 24.9 - - - - ESE 46 52 25 28 1018.2 - -
20/07:30am 24.8 - - - - ESE 46 56 25 30 1018.1 - -
20/07:15am 24.7 - - - - ESE 48 - 26 - - 1017.5 -
20/07:00am 24.7 - - - - ESE 48 57 26 31 1017.6 - -
20/06:30am 24.7 - - - - ESE 48 57 26 31 1017.3 - -
20/06:15am 24.7 - - - - ESE 50 - 27 - - 1016.9 -
20/06:00am 24.5 - - - - ESE 46 56 25 30 1017.1 - -
20/05:30am 24.6 - - - - ESE 48 57 26 31 1016.6 - -
20/05:15am 24.5 - - - - ESE 48 - 26 - - 1016.1 -
20/05:00am 24.5 - - - - ESE 48 57 26 31 1016.2 - -
20/04:30am 24.5 - - - - ESE 48 56 26 30 1016.2 - -
20/04:15am 24.5 - - - - ESE 50 - 27 - - 1015.9 -
20/04:00am 24.5 - - - - SE 48 56 26 30 1016.1 - -
20/03:30am 24.6 - - - - SE 48 57 26 31 1016.2 - -
20/03:15am 24.6 - - - - SE 50 - 27 - - 1015.8 -
20/03:00am 24.6 - - - - SE 50 61 27 33 1016.2 - -
20/02:30am 24.8 - - - - SE 48 56 26 30 1016.2 - -
20/02:15am 24.6 - - - - SE 46 - 25 - - 1016.0 -
20/02:00am 24.7 - - - - ESE 48 57 26 31 1016.4 - -
20/01:30am 24.7 - - - - ESE 46 54 25 29 1016.7 - -
20/01:15am 24.8 - - - - SE 48 - 26 - - 1016.5 -
20/01:00am 24.6 - - - - SE 46 54 25 29 1017.0 - -
20/12:30am 24.8 - - - - ESE 46 56 25 30 1017.4 - -
20/12:15am 24.7 - - - - SE 46 - 25 - - 1017.4 -
20/12:00am 24.5 - - - - ESE 46 57 25 31 1017.7 - -
 
Date/Time
EST
Temp
°C
App
Temp
°C
Dew
Point
Rel
Hum
%
Delta-T
°C
Wind Press
QNH
hPa
Press
MSL
hPa
Rain
since 9 am
mm
Dir
 
Spd
km/h
Gust
km/h
Spd
kts
Gust
kts
19/11:30pm 25.1 - - - - ESE 44 54 24 29 1018.2 - -
19/11:15pm 24.8 - - - - SE 50 - 27 - - 1017.9 -
19/11:00pm 24.9 - - - - SE 48 56 26 30 1018.4 - -
19/10:30pm 25.0 - - - - ESE 52 57 28 31 1018.4 - -
19/10:15pm 24.9 - - - - SE 52 - 28 - - 1018.2 -
19/10:00pm 24.9 - - - - SE 50 61 27 33 1018.5 - -
19/09:30pm 24.8 - - - - ESE 52 59 28 32 1018.5 - -
19/09:15pm 24.9 - - - - ESE 52 - 28 - - 1018.2 -
19/09:00pm 24.8 - - - - SE 52 59 28 32 1018.3 - -
19/08:30pm 24.8 - - - - SE 54 61 29 33 1018.0 - -
19/08:15pm 24.8 - - - - SE 50 - 27 - - 1017.6 -
19/08:00pm 25.0 - - - - SE 52 59 28 32 1017.8 - -
19/07:30pm 24.8 - - - - SE 50 57 27 31 1017.6 - -
19/07:15pm 24.8 - - - - SE 50 - 27 - - 1017.1 -
19/07:00pm 24.7 - - - - SE 52 59 28 32 1017.4 - -
19/06:30pm 24.8 - - - - SE 52 61 28 33 1017.0 - -
19/06:15pm 24.9 - - - - ESE 50 - 27 - - 1016.6 -
19/06:00pm 24.9 - - - - SE 50 59 27 32 1016.7 - -
19/05:30pm 25.0 - - - - SE 48 57 26 31 1016.5 - -
19/05:15pm 25.0 - - - - SE 50 - 27 - - 1016.1 -
19/05:00pm 24.9 - - - - SE 48 56 26 30 1016.3 - -
19/04:30pm 25.0 - - - - SE 46 56 25 30 1016.0 - -
19/04:15pm 24.8 - - - - SE 46 - 25 - - 1015.6 -
19/04:00pm 24.9 - - - - SE 50 59 27 32 1015.8 - -
19/03:30pm 24.9 - - - - SE 50 57 27 31 1015.7 - -
19/03:15pm 24.8 - - - - ESE 52 - 28 - - 1015.5 -
19/03:00pm 25.0 - - - - SE 46 56 25 30 1015.8 - -
19/02:30pm 24.8 - - - - SE 50 61 27 33 1015.9 - -
19/02:15pm 25.0 - - - - SE 50 - 27 - - 1015.4 -
19/02:00pm 25.0 - - - - SE 50 57 27 31 1015.8 - -
19/01:30pm 24.9 - - - - SE 54 61 29 33 1016.0 - -
19/01:15pm 25.1 - - - - SE 48 - 26 - - 1016.0 -
19/01:00pm 25.0 - - - - SE 50 59 27 32 1016.3 - -
19/12:30pm 25.0 - - - - SE 48 56 26 30 1016.8 - -
19/12:15pm 25.0 - - - - SE 44 - 24 - - 1016.7 -
19/12:00pm 24.8 - - - - SE 44 50 24 27 1017.3 - -
19/11:30am 24.5 - - - - SE 46 54 25 29 1017.8 - -
19/11:15am 24.7 - - - - SE 50 - 27 - - 1017.5 -
19/11:00am 24.6 - - - - ESE 48 56 26 30 1018.0 - -
19/10:30am 24.2 - - - - ESE 52 57 28 31 1018.0 - -
19/10:16am 23.7 - - - - ESE 32 52 17 28 1018.2 - -
19/10:15am 23.3 - - - - ESE 32 - 17 - - 1018.1 -
19/10:00am 23.2 - - - - ESE 41 54 22 29 1018.4 - -
19/09:30am 24.4 - - - - ESE 48 54 26 29 1018.4 - -
19/09:15am 24.7 - - - - ESE 43 - 23 - - 1018.0 -
19/09:00am 23.8 - - - - ESE 48 57 26 31 1018.4 - -
19/08:30am 23.9 - - - - ESE 48 63 26 34 1018.4 - -
19/08:15am 23.9 - - - - ESE 48 - 26 - - 1018.2 -
19/08:00am 25.0 - - - - SE 46 52 25 28 1018.3 - -
19/07:30am 25.2 - - - - SE 44 52 24 28 1018.1 - -
19/07:15am 24.9 - - - - ESE 43 - 23 - - 1017.5 -
19/07:00am 24.9 - - - - SE 41 48 22 26 1017.7 - -
19/06:15am 24.6 - - - - SE 41 - 22 - - 1016.8 -
19/06:00am 24.7 - - - - SE 39 46 21 25 1017.1 - -
19/05:30am 24.8 - - - - ESE 37 44 20 24 1017.0 - -
19/05:15am 24.9 - - - - ESE 37 - 20 - - 1016.6 -
19/05:00am 24.7 - - - - SE 37 43 20 23 1016.7 - -
19/04:30am 24.7 - - - - ESE 37 43 20 23 1016.5 - -
19/04:15am 24.8 - - - - ESE 37 - 20 - - 1016.1 -
19/04:00am 24.8 - - - - ESE 39 43 21 23 1016.3 - -
19/03:30am 24.6 - - - - ESE 39 48 21 26 1016.2 - -
19/03:15am 24.9 - - - - SE 37 - 20 - - 1015.9 -
19/03:00am 24.7 - - - - SE 37 43 20 23 1016.2 - -
19/02:30am 24.7 - - - - SE 39 44 21 24 1016.3 - -
19/02:15am 24.6 - - - - SE 43 - 23 - - 1016.1 -
19/02:00am 24.7 - - - - SE 41 46 22 25 1016.5 - -
19/01:30am 24.8 - - - - ESE 41 48 22 26 1016.9 - -
19/01:15am 24.8 - - - - ESE 44 - 24 - - 1016.7 -
19/01:00am 24.8 - - - - SE 44 52 24 28 1017.1 - -
19/12:30am 24.9 - - - - SE 43 50 23 27 1017.5 - -
19/12:15am 24.9 - - - - SE 41 - 22 - - 1017.4 -
19/12:00am 25.0 - - - - SE 41 48 22 26 1018.0 - -
 
Date/Time
EST
Temp
°C
App
Temp
°C
Dew
Point
Rel
Hum
%
Delta-T
°C
Wind Press
QNH
hPa
Press
MSL
hPa
Rain
since 9 am
mm
Dir
 
Spd
km/h
Gust
km/h
Spd
kts
Gust
kts
18/11:30pm 25.0 - - - - SE 44 52 24 28 1018.3 - -
18/11:15pm 24.9 - - - - SE 44 - 24 - - 1018.1 -
18/11:00pm 25.2 - - - - SE 43 50 23 27 1018.6 - -
18/10:15pm 25.1 - - - - ESE 46 - 25 - - 1018.4 -
18/10:00pm 25.1 - - - - SE 48 56 26 30 1018.6 - -
18/09:30pm 25.2 - - - - SE 44 52 24 28 1018.6 - -
18/09:15pm 25.3 - - - - SE 44 - 24 - - 1018.2 -
18/09:00pm 25.2 - - - - SE 43 50 23 27 1018.3 - -
18/08:30pm 25.4 - - - - ESE 44 50 24 27 1018.2 - -
18/08:15pm 25.3 - - - - SE 46 - 25 - - 1017.7 -
18/08:00pm 25.4 - - - - ESE 46 52 25 28 1017.8 - -
18/07:30pm 25.5 - - - - SE 46 56 25 30 1017.4 - -
18/07:15pm 25.4 - - - - SE 46 - 25 - - 1017.2 -
18/07:00pm 25.5 - - - - ESE 48 57 26 31 1017.2 - -
18/06:30pm 25.5 - - - - SE 48 56 26 30 1017.0 - -
18/06:15pm 25.4 - - - - SE 50 - 27 - - 1016.4 -
18/06:00pm 25.5 - - - - SE 44 52 24 28 1016.6 - -
18/05:30pm 25.4 - - - - SE 44 54 24 29 1016.1 - -
18/05:15pm 25.4 - - - - SE 46 - 25 - - 1015.5 -
18/05:00pm 25.3 - - - - SE 46 52 25 28 1015.6 - -
18/04:30pm 25.0 - - - - SE 46 52 25 28 1015.4 - -
18/04:15pm 24.1 - - - - SE 39 - 21 - - 1015.1 -
18/04:00pm 24.7 - - - - SE 43 52 23 28 1015.3 - -
18/03:30pm 25.4 - - - - SE 43 50 23 27 1015.1 - -
18/03:15pm 25.3 - - - - SE 41 - 22 - - 1014.8 -
18/03:00pm 25.1 - - - - SE 44 52 24 28 1015.2 - -
18/02:31pm 24.3 - - - - ESE 41 59 22 32 1015.5 - -
18/02:30pm 24.4 - - - - ESE 43 59 23 32 1015.5 - -
18/02:21pm 24.4 - - - - ESE 50 67 27 36 1015.4 - -
18/02:19pm 25.1 - - - - SSE 37 67 20 36 1015.3 - -
18/02:15pm 25.4 - - - - SSE 35 - 19 - - 1015.2 -
18/02:00pm 25.3 - - - - SSE 35 41 19 22 1015.5 - -
18/01:30pm 25.3 - - - - SSE 35 41 19 22 1015.9 - -
18/01:15pm 25.1 - - - - SE 33 - 18 - - 1015.8 -
18/01:00pm 25.2 - - - - SSE 35 41 19 22 1016.2 - -
18/12:30pm 25.1 - - - - SSE 35 41 19 22 1016.5 - -
18/12:15pm 25.2 - - - - SE 35 - 19 - - 1016.3 -
18/12:00pm 25.3 - - - - SSE 35 41 19 22 1016.8 - -
18/11:30am 25.2 - - - - SE 35 41 19 22 1017.1 - -
18/11:15am 25.1 - - - - SE 35 - 19 - - 1017.1 -
18/11:00am 25.3 - - - - SE 33 39 18 21 1017.7 - -
18/10:30am 25.3 - - - - SE 33 39 18 21 1018.0 - -
18/10:15am 25.3 - - - - SE 33 - 18 - - 1017.7 -
18/10:00am 25.4 - - - - SE 32 37 17 20 1018.1 - -
18/09:30am 25.3 - - - - ESE 33 39 18 21 1018.2 - -
18/09:15am 25.5 - - - - SE 32 - 17 - - 1018.0 -
18/09:00am 25.5 - - - - SE 32 35 17 19 1018.1 - -
18/08:30am 25.3 - - - - SE 32 39 17 21 1017.8 - -
18/08:15am 25.3 - - - - SE 30 - 16 - - 1017.4 -
18/08:00am 25.3 - - - - SE 32 37 17 20 1017.7 - -
18/07:30am 25.4 - - - - SE 30 35 16 19 1017.5 - -
18/07:15am 25.2 - - - - SE 33 - 18 - - 1017.0 -
18/07:00am 25.0 - - - - SE 33 39 18 21 1017.0 - -
18/06:30am 25.0 - - - - SE 32 37 17 20 1016.7 - -
18/06:15am 24.7 - - - - SE 30 - 16 - - 1016.3 -
18/06:00am 24.8 - - - - SE 30 35 16 19 1016.4 - -
18/05:30am 24.6 - - - - SE 30 35 16 19 1016.2 - -
18/05:15am 24.5 - - - - SE 28 - 15 - - 1015.8 -
18/05:00am 24.6 - - - - SE 28 33 15 18 1016.0 - -
18/04:30am 24.7 - - - - SE 28 33 15 18 1015.9 - -
18/04:15am 24.6 - - - - ESE 30 - 16 - - 1015.5 -
18/04:00am 24.6 - - - - ESE 32 35 17 19 1015.5 - -

Other Formats:

Comma delimited format used in spreadsheet applications
http://www.bom.gov.au/fwo/IDQ60801/IDQ60801.94289.axf

JavaScript Object Notation format (JSON) in row-major order
http://www.bom.gov.au/fwo/IDQ60801/IDQ60801.94289.json